createdAt,value
2023-05-18T00:00:15.435Z,33.05
2023-05-18T00:05:13.169Z,35.10
2023-05-18T00:07:42.552Z,29.50
2023-05-18T00:10:12.992Z,29.17
2023-05-18T00:15:24.162Z,29.20
2023-05-18T00:17:54.668Z,28.80
2023-05-18T00:20:27.809Z,29.48
2023-05-18T00:22:56.919Z,30.92
2023-05-18T00:25:25.953Z,27.80
2023-05-18T00:27:54.997Z,35.53
2023-05-18T00:30:26.818Z,28.35
2023-05-18T00:32:55.892Z,31.05
2023-05-18T00:35:25.067Z,32.45
2023-05-18T00:37:54.185Z,29.45
2023-05-18T00:40:24.562Z,30.65
2023-05-18T00:42:53.626Z,29.70
2023-05-18T00:45:22.836Z,28.05
2023-05-18T00:47:51.967Z,27.75
2023-05-18T00:50:21.299Z,34.22
2023-05-18T00:52:50.380Z,30.85
2023-05-18T00:55:19.504Z,32.30
2023-05-18T00:57:49.433Z,36.05
2023-05-18T01:00:21.917Z,29.42
2023-05-18T01:02:52.353Z,28.30
2023-05-18T01:05:23.348Z,27.52
2023-05-18T01:07:52.557Z,28.92
2023-05-18T01:10:22.267Z,24.90
2023-05-18T01:12:58.982Z,22.08
2023-05-18T01:15:39.936Z,27.15
2023-05-18T01:18:24.688Z,25.15
2023-05-18T01:21:20.343Z,27.40
2023-05-18T01:24:40.481Z,26.77
2023-05-18T01:27:10.866Z,26.52
2023-05-18T01:29:40.763Z,21.02
2023-05-18T01:32:10.513Z,23.60
2023-05-18T01:34:39.629Z,20.98
2023-05-18T01:37:08.628Z,21.80
2023-05-18T01:39:37.863Z,21.98
2023-05-18T01:42:14.068Z,24.40
2023-05-18T01:44:48.615Z,22.88
2023-05-18T01:47:18.964Z,36.85
2023-05-18T01:49:54.106Z,27.45
2023-05-18T01:52:45.850Z,27.00
2023-05-18T01:55:17.100Z,23.50
2023-05-18T01:57:49.039Z,19.35
2023-05-18T02:00:21.856Z,22.73
2023-05-18T02:02:51.109Z,23.27
2023-05-18T02:05:20.302Z,18.05
2023-05-18T02:07:49.260Z,18.63
2023-05-18T02:10:18.539Z,27.35
2023-05-18T02:12:50.393Z,19.13
2023-05-18T02:15:19.926Z,18.83
2023-05-18T02:17:49.107Z,22.33
2023-05-18T02:20:21.180Z,20.55
2023-05-18T02:22:53.143Z,15.82
2023-05-18T02:25:22.420Z,22.70
2023-05-18T02:27:54.380Z,22.05
2023-05-18T02:30:23.465Z,29.58
2023-05-18T02:32:52.535Z,27.13
2023-05-18T02:35:21.885Z,22.70
2023-05-18T02:37:52.859Z,19.17
2023-05-18T02:40:21.971Z,22.23
2023-05-18T02:42:51.045Z,23.58
2023-05-18T02:45:22.111Z,22.50
2023-05-18T02:47:51.194Z,17.92
2023-05-18T02:50:20.261Z,20.92
2023-05-18T02:52:54.086Z,20.70
2023-05-18T02:55:23.168Z,22.70
2023-05-18T02:57:58.553Z,21.70
2023-05-18T03:00:30.993Z,23.25
2023-05-18T03:03:01.703Z,20.65
2023-05-18T03:05:36.310Z,20.27
2023-05-18T03:08:06.169Z,18.80
2023-05-18T03:10:35.225Z,23.38
2023-05-18T03:13:04.746Z,24.20
2023-05-18T03:15:33.891Z,22.27
2023-05-18T03:18:03.167Z,22.23
2023-05-18T03:20:32.967Z,23.60
2023-05-18T03:23:02.187Z,21.15
2023-05-18T03:25:31.728Z,16.95
2023-05-18T03:28:01.429Z,17.27
2023-05-18T03:30:30.447Z,19.75
2023-05-18T03:32:59.611Z,16.08
2023-05-18T03:35:29.253Z,26.88
2023-05-18T03:37:58.723Z,24.10
2023-05-18T03:40:27.771Z,18.98
2023-05-18T03:42:56.818Z,20.58
2023-05-18T03:45:25.869Z,20.35
2023-05-18T03:47:55.018Z,18.70
2023-05-18T03:50:24.179Z,22.70
2023-05-18T03:52:54.416Z,21.27
2023-05-18T03:55:23.635Z,25.27
2023-05-18T03:57:52.661Z,25.20
2023-05-18T04:00:21.936Z,19.48
2023-05-18T04:02:53.117Z,18.75
2023-05-18T04:05:22.514Z,18.13
2023-05-18T04:07:51.505Z,18.75
2023-05-18T04:10:22.552Z,19.70
2023-05-18T04:12:51.817Z,19.95
2023-05-18T04:15:20.925Z,19.15
2023-05-18T04:17:52.564Z,18.15
2023-05-18T04:20:22.486Z,23.30
2023-05-18T04:22:51.971Z,20.55
2023-05-18T04:25:21.524Z,19.40
2023-05-18T04:27:51.878Z,17.20
2023-05-18T04:30:23.353Z,22.17
2023-05-18T04:32:59.478Z,17.25
2023-05-18T04:35:29.265Z,17.07
2023-05-18T04:37:58.363Z,17.60
2023-05-18T04:40:27.508Z,21.33
2023-05-18T04:42:56.588Z,19.35
2023-05-18T04:45:27.295Z,17.42
2023-05-18T04:47:56.430Z,24.95
2023-05-18T04:50:25.719Z,18.73
2023-05-18T04:52:59.019Z,17.58
2023-05-18T04:55:29.447Z,18.52
2023-05-18T04:58:00.722Z,17.48
2023-05-18T05:00:31.341Z,18.50
2023-05-18T05:03:01.345Z,20.85
2023-05-18T05:05:32.341Z,16.52
2023-05-18T05:08:01.780Z,18.45
2023-05-18T05:10:30.782Z,20.40
2023-05-18T05:12:59.842Z,18.67
2023-05-18T05:15:29.031Z,15.70
2023-05-18T05:17:59.797Z,15.85
2023-05-18T05:20:28.920Z,17.88
2023-05-18T05:22:58.111Z,16.00
2023-05-18T05:25:27.210Z,17.67
2023-05-18T05:27:56.257Z,17.08
2023-05-18T05:30:25.311Z,17.52
2023-05-18T05:32:54.376Z,19.20
2023-05-18T05:35:23.655Z,23.60
2023-05-18T05:37:52.737Z,16.98
2023-05-18T05:40:21.853Z,19.85
2023-05-18T05:42:51.620Z,16.85
2023-05-18T05:45:20.742Z,19.35
2023-05-18T05:47:50.812Z,15.13
2023-05-18T05:50:19.899Z,16.35
2023-05-18T05:52:48.990Z,17.80
2023-05-18T05:55:18.077Z,29.10
2023-05-18T05:57:47.133Z,21.45
2023-05-18T06:00:16.477Z,13.88
2023-05-18T06:02:45.563Z,18.38
2023-05-18T06:05:14.605Z,17.45
2023-05-18T06:07:43.640Z,21.17
2023-05-18T06:10:12.739Z,22.55
2023-05-18T06:12:42.471Z,18.83
2023-05-18T06:15:12.212Z,18.50
2023-05-18T06:17:41.630Z,22.13
2023-05-18T06:20:11.155Z,17.30
2023-05-18T06:22:40.230Z,15.93
2023-05-18T06:25:09.749Z,15.57
2023-05-18T06:27:38.867Z,17.20
2023-05-18T06:30:09.357Z,18.60
2023-05-18T06:32:41.234Z,17.23
2023-05-18T06:35:10.555Z,18.55
2023-05-18T06:37:39.570Z,15.38
2023-05-18T06:40:10.061Z,17.15
2023-05-18T06:42:39.048Z,14.32
2023-05-18T06:45:08.822Z,17.50
2023-05-18T06:47:38.391Z,14.90
2023-05-18T06:50:08.123Z,16.38
2023-05-18T06:52:37.286Z,13.77
2023-05-18T06:55:06.867Z,17.70
2023-05-18T06:57:36.221Z,22.60
2023-05-18T07:00:10.303Z,19.58
2023-05-18T07:02:40.255Z,19.48
2023-05-18T07:05:10.482Z,25.85
2023-05-18T07:07:39.647Z,20.30
2023-05-18T07:10:09.341Z,15.60
2023-05-18T07:12:38.533Z,16.58
2023-05-18T07:15:09.049Z,19.60
2023-05-18T07:17:38.386Z,17.38
2023-05-18T07:20:08.846Z,14.93
2023-05-18T07:22:37.944Z,14.90
2023-05-18T07:25:07.528Z,15.18
2023-05-18T07:27:36.634Z,16.70
2023-05-18T07:30:05.928Z,17.77
2023-05-18T07:32:35.142Z,28.20
2023-05-18T07:35:04.283Z,15.23
2023-05-18T07:37:33.561Z,15.35
2023-05-18T07:40:02.640Z,14.98
2023-05-18T07:42:32.134Z,16.98
2023-05-18T07:45:01.213Z,16.58
2023-05-18T07:47:30.309Z,15.43
2023-05-18T07:49:59.448Z,12.88
2023-05-18T07:52:28.675Z,20.33
2023-05-18T07:55:02.253Z,21.23
2023-05-18T07:57:32.208Z,17.60
2023-05-18T08:00:01.322Z,20.88
2023-05-18T08:02:32.872Z,19.23
2023-05-18T08:05:06.164Z,13.55
2023-05-18T08:07:35.669Z,13.57
2023-05-18T08:10:04.917Z,13.98
2023-05-18T08:12:35.883Z,18.02
2023-05-18T08:15:05.125Z,13.40
2023-05-18T08:17:34.126Z,20.23
2023-05-18T08:20:03.259Z,16.38
2023-05-18T08:22:32.335Z,20.25
2023-05-18T08:25:02.820Z,14.40
2023-05-18T08:27:32.618Z,14.85
2023-05-18T08:30:01.953Z,13.77
2023-05-18T08:32:31.067Z,20.27
2023-05-18T08:35:00.170Z,12.02
2023-05-18T08:37:30.589Z,13.85
2023-05-18T08:40:00.968Z,19.73
2023-05-18T08:42:56.998Z,16.98
2023-05-18T08:46:27.659Z,22.67
2023-05-18T08:48:58.891Z,23.40
2023-05-18T08:51:33.509Z,20.40
2023-05-18T08:54:03.914Z,12.85
2023-05-18T08:56:37.401Z,14.40
2023-05-18T08:59:09.654Z,17.08
2023-05-18T09:01:39.316Z,13.70
2023-05-18T09:04:09.125Z,14.32
2023-05-18T09:06:39.029Z,14.70
2023-05-18T09:09:08.716Z,14.25
2023-05-18T09:11:38.043Z,18.10
2023-05-18T09:14:07.077Z,16.92
2023-05-18T09:16:36.261Z,16.38
2023-05-18T09:19:06.139Z,19.00
2023-05-18T09:21:35.244Z,14.45
2023-05-18T09:24:04.461Z,17.63
2023-05-18T09:26:33.618Z,21.63
2023-05-18T09:29:02.808Z,20.55
2023-05-18T09:31:32.782Z,16.98
2023-05-18T09:34:02.699Z,15.93
2023-05-18T09:36:35.743Z,15.00
2023-05-18T09:41:43.066Z,14.07
2023-05-18T09:44:19.133Z,16.52
2023-05-18T09:46:48.433Z,22.73
2023-05-18T09:49:24.340Z,17.02
2023-05-18T09:51:54.768Z,19.15
2023-05-18T09:54:26.595Z,16.42
2023-05-18T09:57:08.842Z,23.08
2023-05-18T09:59:39.716Z,21.25
2023-05-18T10:02:14.409Z,19.88
2023-05-18T10:04:44.469Z,17.13
2023-05-18T10:07:18.293Z,26.75
2023-05-18T10:09:48.300Z,16.75
2023-05-18T10:12:20.276Z,16.80
2023-05-18T10:14:51.758Z,17.88
2023-05-18T10:17:27.027Z,19.80
2023-05-18T10:19:58.601Z,23.42
2023-05-18T10:22:32.473Z,15.98
2023-05-18T10:25:06.893Z,19.98
2023-05-18T10:27:37.810Z,17.52
2023-05-18T10:30:09.481Z,17.70
2023-05-18T10:32:39.578Z,16.38
2023-05-18T10:35:12.273Z,28.02
2023-05-18T10:37:44.899Z,25.02
2023-05-18T10:40:15.719Z,24.38
2023-05-18T10:42:45.851Z,19.05
2023-05-18T10:45:15.652Z,18.77
2023-05-18T10:47:46.259Z,19.25
2023-05-18T10:50:17.892Z,23.40
2023-05-18T10:52:48.482Z,24.77
2023-05-18T10:55:17.872Z,18.60
2023-05-18T10:57:51.272Z,16.40
2023-05-18T11:00:21.552Z,19.88
2023-05-18T11:02:52.521Z,16.70
2023-05-18T11:05:28.433Z,16.90
2023-05-18T11:08:07.625Z,19.35
2023-05-18T11:10:44.150Z,13.18
2023-05-18T11:13:15.999Z,15.52
2023-05-18T11:15:57.584Z,27.42
2023-05-18T11:18:48.776Z,22.17
2023-05-18T11:21:26.902Z,24.05
2023-05-18T11:24:20.992Z,34.70
2023-05-18T11:26:52.337Z,22.85
2023-05-18T11:29:23.757Z,23.30
2023-05-18T11:31:57.027Z,22.52
2023-05-18T11:37:11.329Z,29.85
2023-05-18T11:39:51.818Z,30.30
2023-05-18T11:42:25.199Z,36.97
2023-05-18T11:44:57.525Z,24.35
2023-05-18T11:47:32.857Z,32.85
2023-05-18T11:50:02.664Z,27.50
2023-05-18T11:52:32.151Z,30.63
2023-05-18T11:55:02.351Z,24.05
2023-05-18T11:57:37.340Z,25.25
2023-05-18T12:00:13.806Z,27.95
2023-05-18T12:02:48.681Z,27.63
2023-05-18T12:05:18.654Z,23.42
2023-05-18T12:07:55.337Z,25.17
2023-05-18T12:10:24.631Z,23.92
2023-05-18T12:12:55.298Z,27.08
2023-05-18T12:15:25.604Z,26.13
2023-05-18T12:17:55.073Z,23.88
2023-05-18T12:20:29.752Z,25.88
2023-05-18T12:22:59.844Z,21.65
2023-05-18T12:25:29.635Z,26.23
2023-05-18T12:27:59.095Z,24.65
2023-05-18T12:30:36.447Z,23.77
2023-05-18T12:33:06.218Z,26.35
2023-05-18T12:35:35.711Z,29.80
2023-05-18T12:38:04.971Z,31.10
2023-05-18T12:40:45.419Z,33.58
2023-05-18T12:43:14.694Z,32.22
2023-05-18T12:45:46.494Z,33.55
2023-05-18T12:48:16.315Z,30.73
2023-05-18T12:50:52.217Z,35.10
2023-05-18T12:53:21.322Z,39.05
2023-05-18T12:56:05.424Z,35.80
2023-05-18T12:58:34.485Z,32.08
2023-05-18T13:01:12.982Z,24.00
2023-05-18T13:03:43.465Z,36.05
2023-05-18T13:06:12.550Z,30.15
2023-05-18T13:08:41.794Z,36.83
2023-05-18T13:11:15.011Z,30.60
2023-05-18T13:14:02.353Z,29.98
2023-05-18T13:16:32.225Z,27.42
2023-05-18T13:19:04.361Z,32.35
2023-05-18T13:21:33.577Z,27.38
2023-05-18T13:24:02.805Z,34.17
2023-05-18T13:26:32.456Z,27.55
2023-05-18T13:29:01.673Z,29.23
2023-05-18T13:31:30.857Z,33.60
2023-05-18T13:33:59.924Z,28.92
2023-05-18T13:36:30.937Z,24.30
2023-05-18T13:39:00.149Z,31.10
2023-05-18T13:41:29.281Z,33.28
2023-05-18T13:43:58.293Z,27.20
2023-05-18T13:46:27.690Z,32.65
2023-05-18T13:48:56.787Z,26.42
2023-05-18T13:51:25.872Z,30.45
2023-05-18T13:53:55.046Z,30.92
2023-05-18T13:56:24.174Z,34.50
2023-05-18T13:58:53.386Z,35.05
2023-05-18T14:01:23.595Z,39.75
2023-05-18T14:03:52.835Z,33.10
2023-05-18T14:06:22.543Z,29.00
2023-05-18T14:08:51.701Z,29.80
2023-05-18T14:11:20.826Z,32.65
2023-05-18T14:13:49.921Z,28.90
2023-05-18T14:16:19.154Z,36.75
2023-05-18T14:18:48.206Z,29.08
2023-05-18T14:21:17.300Z,27.80
2023-05-18T14:23:46.481Z,25.75
2023-05-18T14:26:15.598Z,27.35
2023-05-18T14:28:44.613Z,30.02
2023-05-18T14:31:13.690Z,26.58
2023-05-18T14:33:43.416Z,24.92
2023-05-18T14:36:12.493Z,27.85
2023-05-18T14:38:42.609Z,24.88
2023-05-18T14:41:11.963Z,27.88
2023-05-18T14:43:40.976Z,27.48
2023-05-18T14:46:10.143Z,24.88
2023-05-18T14:48:39.300Z,27.10
2023-05-18T14:51:08.435Z,31.48
2023-05-18T14:53:37.424Z,24.05
2023-05-18T14:56:09.739Z,25.75
2023-05-18T14:58:38.773Z,26.13
2023-05-18T15:01:08.393Z,28.23
2023-05-18T15:03:37.567Z,26.27
2023-05-18T15:06:07.127Z,31.98
2023-05-18T15:08:36.122Z,27.65
2023-05-18T15:11:05.211Z,25.50
2023-05-18T15:13:34.310Z,28.63
2023-05-18T15:16:03.913Z,28.67
2023-05-18T15:18:32.961Z,23.80
2023-05-18T15:21:01.954Z,32.05
2023-05-18T15:23:31.048Z,28.35
2023-05-18T15:26:00.155Z,29.83
2023-05-18T15:28:29.227Z,30.95
2023-05-18T15:30:58.464Z,27.27
2023-05-18T15:33:27.532Z,26.55
2023-05-18T15:35:56.546Z,31.52
2023-05-18T15:38:25.734Z,28.23
2023-05-18T15:40:55.800Z,28.27
2023-05-18T15:43:25.275Z,27.85
2023-05-18T15:45:54.525Z,26.75
2023-05-18T15:48:23.549Z,23.10
2023-05-18T15:50:52.639Z,27.58
2023-05-18T15:53:22.047Z,26.52
2023-05-18T15:55:58.755Z,29.20
2023-05-18T15:58:28.215Z,22.00
2023-05-18T16:00:57.481Z,25.58
2023-05-18T16:03:26.745Z,28.92
2023-05-18T16:05:55.902Z,25.95
2023-05-18T16:08:24.940Z,23.98
2023-05-18T16:10:54.228Z,24.58
2023-05-18T16:13:27.026Z,25.00
2023-05-18T16:15:56.064Z,27.58
2023-05-18T16:18:25.056Z,28.85
2023-05-18T16:20:54.334Z,27.88
2023-05-18T16:23:23.305Z,24.80
2023-05-18T16:25:52.432Z,35.40
2023-05-18T16:28:21.499Z,32.13
2023-05-18T16:30:50.509Z,27.50
2023-05-18T16:33:19.490Z,30.98
2023-05-18T16:35:48.710Z,28.13
2023-05-18T16:38:18.162Z,31.50
2023-05-18T16:40:47.693Z,26.40
2023-05-18T16:43:16.911Z,29.85
2023-05-18T16:45:46.420Z,29.70
2023-05-18T16:48:15.492Z,31.88
2023-05-18T16:50:44.583Z,35.17
2023-05-18T16:53:13.735Z,31.17
2023-05-18T16:55:43.035Z,38.33
2023-05-18T16:58:12.264Z,33.40
2023-05-18T17:00:41.353Z,34.60
2023-05-18T17:03:10.436Z,37.15
2023-05-18T17:05:39.526Z,42.40
2023-05-18T17:08:08.587Z,34.05
2023-05-18T17:10:37.824Z,33.75
2023-05-18T17:13:07.628Z,34.78
2023-05-18T17:15:37.249Z,28.58
2023-05-18T17:18:06.530Z,30.60
2023-05-18T17:20:35.622Z,31.27
2023-05-18T17:23:05.788Z,34.42
2023-05-18T17:25:34.896Z,30.80
2023-05-18T17:28:03.976Z,37.55
2023-05-18T17:30:33.271Z,33.08
2023-05-18T17:33:02.570Z,40.78
2023-05-18T17:35:31.907Z,42.35
2023-05-18T17:38:00.969Z,28.77
2023-05-18T17:40:30.323Z,32.58
2023-05-18T17:43:00.303Z,31.17
2023-05-18T17:45:29.368Z,25.55
2023-05-18T17:47:58.576Z,28.42
2023-05-18T17:50:27.636Z,30.67
2023-05-18T17:52:56.732Z,36.25
2023-05-18T17:55:25.674Z,34.88
2023-05-18T17:57:54.640Z,31.33
2023-05-18T18:00:23.818Z,37.20
2023-05-18T18:02:52.863Z,36.35
2023-05-18T18:05:22.009Z,31.38
2023-05-18T18:07:51.191Z,30.92
2023-05-18T18:10:20.250Z,28.80
2023-05-18T18:12:49.305Z,30.95
2023-05-18T18:15:18.557Z,30.55
2023-05-18T18:17:47.557Z,26.38
2023-05-18T18:20:16.631Z,30.15
2023-05-18T18:22:45.660Z,28.83
2023-05-18T18:25:15.145Z,28.95
2023-05-18T18:27:44.840Z,28.00
2023-05-18T18:30:14.580Z,32.88
2023-05-18T18:32:43.737Z,32.75
2023-05-18T18:35:12.963Z,28.08
2023-05-18T18:37:42.071Z,27.52
2023-05-18T18:40:12.653Z,32.92
2023-05-18T18:42:41.914Z,28.45
2023-05-18T18:45:11.282Z,27.05
2023-05-18T18:47:40.378Z,28.95
2023-05-18T18:50:09.918Z,28.90
2023-05-18T18:52:38.962Z,32.72
2023-05-18T18:55:08.493Z,27.38
2023-05-18T18:57:37.530Z,31.15
2023-05-18T19:00:12.320Z,31.15
2023-05-18T19:02:42.449Z,30.23
2023-05-18T19:05:12.062Z,28.40
2023-05-18T19:07:41.165Z,27.75
2023-05-18T19:10:11.363Z,29.13
2023-05-18T19:12:40.363Z,34.40
2023-05-18T19:15:10.058Z,29.23
2023-05-18T19:17:39.349Z,24.10
2023-05-18T19:20:09.535Z,27.80
2023-05-18T19:22:38.614Z,28.38
2023-05-18T19:25:08.289Z,28.02
2023-05-18T19:27:37.959Z,30.33
2023-05-18T19:30:08.388Z,27.90
2023-05-18T19:32:37.401Z,28.42
2023-05-18T19:35:06.625Z,32.28
2023-05-18T19:37:35.633Z,33.63
2023-05-18T19:40:05.997Z,35.03
2023-05-18T19:42:35.056Z,29.02
2023-05-18T19:45:04.511Z,32.92
2023-05-18T19:47:33.648Z,29.30
2023-05-18T19:50:02.779Z,29.65
2023-05-18T19:52:31.801Z,31.88
2023-05-18T19:55:00.803Z,24.58
2023-05-18T19:57:30.028Z,29.85
2023-05-18T19:59:59.077Z,34.90
2023-05-18T20:02:28.251Z,26.00
2023-05-18T20:04:57.296Z,30.50
2023-05-18T20:07:26.324Z,30.65
2023-05-18T20:09:55.851Z,29.63
2023-05-18T20:12:24.897Z,31.88
2023-05-18T20:14:53.954Z,27.30
2023-05-18T20:17:22.963Z,27.73
2023-05-18T20:19:52.135Z,24.20
2023-05-18T20:22:21.540Z,30.17
2023-05-18T20:24:50.881Z,33.20
2023-05-18T20:27:19.975Z,30.08
2023-05-18T20:29:48.962Z,29.45
2023-05-18T20:32:17.969Z,28.92
2023-05-18T20:34:47.148Z,31.80
2023-05-18T20:37:16.149Z,33.97
2023-05-18T20:39:51.595Z,25.27
2023-05-18T20:42:24.663Z,29.65
2023-05-18T20:44:54.003Z,31.13
2023-05-18T20:47:23.085Z,31.00
2023-05-18T20:49:52.270Z,30.08
2023-05-18T20:52:21.341Z,29.30
2023-05-18T20:54:50.602Z,28.13
2023-05-18T20:57:19.734Z,31.48
2023-05-18T20:59:49.028Z,29.05
2023-05-18T21:02:18.266Z,28.85
2023-05-18T21:04:50.793Z,27.13
2023-05-18T21:07:19.867Z,29.52
2023-05-18T21:09:49.033Z,32.88
2023-05-18T21:12:18.147Z,29.55
2023-05-18T21:14:47.268Z,29.17
2023-05-18T21:17:16.768Z,32.72
2023-05-18T21:19:45.803Z,30.42
2023-05-18T21:22:14.874Z,27.15
2023-05-18T21:24:43.877Z,30.13
2023-05-18T21:27:12.953Z,31.83
2023-05-18T21:29:42.071Z,29.42
2023-05-18T21:32:11.293Z,30.40
2023-05-18T21:34:42.050Z,28.70
2023-05-18T21:37:12.878Z,32.80
2023-05-18T21:39:43.243Z,30.75
2023-05-18T21:42:12.453Z,31.50
2023-05-18T21:44:41.489Z,31.45
2023-05-18T21:47:11.276Z,33.72
2023-05-18T21:49:40.402Z,27.88
2023-05-18T21:52:09.504Z,26.00
2023-05-18T21:54:38.840Z,25.27
2023-05-18T21:57:07.917Z,29.50
2023-05-18T21:59:37.091Z,30.05
2023-05-18T22:02:06.157Z,32.97
2023-05-18T22:04:35.345Z,28.30
2023-05-18T22:07:04.476Z,28.90
2023-05-18T22:09:33.471Z,30.75
2023-05-18T22:12:02.572Z,27.98
2023-05-18T22:14:32.275Z,26.27
2023-05-18T22:17:01.409Z,33.97
2023-05-18T22:19:30.710Z,30.33
2023-05-18T22:21:59.922Z,36.42
2023-05-18T22:24:29.451Z,29.48
2023-05-18T22:26:58.424Z,29.65
2023-05-18T22:29:27.468Z,35.70
2023-05-18T22:31:56.583Z,33.25
2023-05-18T22:34:25.634Z,32.65
2023-05-18T22:36:54.707Z,30.67
2023-05-18T22:39:23.761Z,32.60
2023-05-18T22:41:52.795Z,33.97
2023-05-18T22:44:21.826Z,31.48
2023-05-18T22:46:50.990Z,27.58
2023-05-18T22:49:20.023Z,34.03
2023-05-18T22:51:49.080Z,34.20
2023-05-18T22:54:18.147Z,34.72
2023-05-18T22:56:47.178Z,35.03
2023-05-18T22:59:16.188Z,29.55
2023-05-18T23:01:45.205Z,40.35
2023-05-18T23:04:14.424Z,40.45
2023-05-18T23:06:43.484Z,31.80
2023-05-18T23:09:12.562Z,28.33
2023-05-18T23:11:42.260Z,30.60
2023-05-18T23:14:12.441Z,25.63
2023-05-18T23:16:44.779Z,31.27
2023-05-18T23:19:14.975Z,35.97
2023-05-18T23:21:44.068Z,30.02
2023-05-18T23:24:15.683Z,29.67
2023-05-18T23:26:45.828Z,31.52
2023-05-18T23:29:15.063Z,31.13
2023-05-18T23:31:44.125Z,30.10
2023-05-18T23:34:13.528Z,39.72
2023-05-18T23:36:45.630Z,37.33
2023-05-18T23:39:15.341Z,31.52
2023-05-18T23:41:45.158Z,33.95
2023-05-18T23:44:14.448Z,33.22
2023-05-18T23:46:43.756Z,29.85
2023-05-18T23:49:13.049Z,31.75
2023-05-18T23:51:43.567Z,30.50
2023-05-18T23:54:14.298Z,37.88
2023-05-18T23:56:43.563Z,39.42
2023-05-18T23:59:14.050Z,39.85
